Time;durP1;ratioP1;P1;durP2;ratioP2;P2;SDS_P1;SDS_P2;PMS_P1;PMS_P2;Temp;Humidity;BMP_temperature;BMP_pressure;BME280_temperature;BME280_humidity;BME280_pressure;Samples;Min_cycle;Max_cycle;Signal;HPM_P1;HPM_P2
2022/05/13 00:01:10;;;;;;;6.18;2.55;;;15.20;59.60;;;;;;2301877;58;21574;-77
2022/05/13 00:03:38;;;;;;;4.47;1.95;;;15.20;59.60;;;;;;2300940;58;21058;-77
2022/05/13 00:06:06;;;;;;;6.10;2.50;;;15.30;59.60;;;;;;2301564;58;21047;-77
2022/05/13 00:08:34;;;;;;;9.35;2.47;;;15.30;59.50;;;;;;2301197;58;21098;-77
2022/05/13 00:11:03;;;;;;;5.03;2.05;;;15.30;59.40;;;;;;2301485;58;21576;-77
2022/05/13 00:13:30;;;;;;;6.00;2.20;;;15.30;59.50;;;;;;2301712;58;21106;-77
2022/05/13 00:15:59;;;;;;;7.18;2.10;;;15.30;59.60;;;;;;2301027;58;21070;-77
2022/05/13 00:18:27;;;;;;;4.82;2.35;;;15.30;59.40;;;;;;2301614;58;21058;-77
2022/05/13 00:20:55;;;;;;;6.32;3.42;;;15.30;59.30;;;;;;2301783;58;21039;-77
2022/05/13 00:23:22;;;;;;;4.50;2.37;;;15.20;59.20;;;;;;2353928;54;21058;-77
2022/05/13 00:25:49;;;;;;;5.32;1.83;;;15.30;59.30;;;;;;2301394;58;21580;-77
2022/05/13 00:28:16;;;;;;;4.90;2.10;;;15.20;59.50;;;;;;2301159;58;21078;-77
2022/05/13 00:30:48;;;;;;;4.70;2.30;;;15.20;59.40;;;;;;2301727;58;21169;-77
2022/05/13 00:33:16;;;;;;;5.53;1.98;;;15.20;59.40;;;;;;2301500;58;21070;-77
2022/05/13 00:35:44;;;;;;;5.62;2.42;;;15.10;59.50;;;;;;2508185;54;21054;-77
2022/05/13 00:38:11;;;;;;;6.03;2.28;;;15.10;60.20;;;;;;2538727;54;21612;-77
2022/05/13 00:40:39;;;;;;;3.17;1.90;;;15.10;59.50;;;;;;2301046;58;21083;-77
2022/05/13 00:43:10;;;;;;;4.55;2.47;;;15.10;59.40;;;;;;2301316;58;21067;-77
2022/05/13 00:45:38;;;;;;;3.40;2.12;;;15.00;59.40;;;;;;2301360;58;21130;-77
2022/05/13 00:48:07;;;;;;;6.20;2.58;;;15.00;59.40;;;;;;2360427;54;21070;-77
2022/05/13 00:50:37;;;;;;;16.65;2.92;;;15.00;59.60;;;;;;2301711;58;21053;-76
2022/05/13 00:53:04;;;;;;;7.82;2.50;;;15.00;59.60;;;;;;2301273;58;21050;-76
2022/05/13 00:55:39;;;;;;;8.20;2.80;;;14.90;59.90;;;;;;2301129;58;21146;-76
2022/05/13 00:58:12;;;;;;;6.53;2.03;;;14.90;60.40;;;;;;2301271;58;21655;-78
2022/05/13 01:00:40;;;;;;;6.47;2.67;;;14.90;60.60;;;;;;2301910;58;21058;-75
2022/05/13 01:03:08;;;;;;;7.37;2.30;;;14.90;59.80;;;;;;2311581;54;21396;-77
2022/05/13 01:05:36;;;;;;;3.53;2.00;;;14.80;60.10;;;;;;2301198;58;21054;-77
2022/05/13 01:08:07;;;;;;;6.72;2.30;;;14.80;60.00;;;;;;2301725;58;21114;-77
2022/05/13 01:10:37;;;;;;;4.75;2.15;;;14.80;60.00;;;;;;2301314;58;21059;-77
2022/05/13 01:13:08;;;;;;;6.50;2.08;;;14.70;60.00;;;;;;2301684;58;21086;-76
2022/05/13 01:15:38;;;;;;;2.25;2.03;;;14.70;60.10;;;;;;2301194;58;21130;-77
2022/05/13 01:18:06;;;;;;;8.77;2.72;;;14.70;60.00;;;;;;2301656;58;21066;-77
2022/05/13 01:20:37;;;;;;;8.82;2.60;;;14.70;60.00;;;;;;2301516;58;21127;-76
2022/05/13 01:23:09;;;;;;;5.72;2.33;;;14.60;59.80;;;;;;2301905;58;21138;-76
2022/05/13 01:25:42;;;;;;;9.73;2.87;;;14.60;59.90;;;;;;2301047;58;21483;-77
2022/05/13 01:30:52;;;;;;;5.22;2.15;;;14.60;60.20;;;;;;2355441;57;22121;-75
2022/05/13 01:33:20;;;;;;;5.25;2.08;;;14.50;60.30;;;;;;2347344;57;21038;-77
2022/05/13 01:35:50;;;;;;;5.93;2.37;;;14.50;60.50;;;;;;2347306;57;21141;-77
2022/05/13 01:38:19;;;;;;;5.40;2.92;;;14.40;60.80;;;;;;2370186;56;21035;-77
2022/05/13 01:40:47;;;;;;;7.00;2.97;;;14.40;61.00;;;;;;2375467;56;21102;-77
2022/05/13 01:43:15;;;;;;;4.30;2.50;;;14.30;61.00;;;;;;2375577;56;21121;-75
2022/05/13 01:45:42;;;;;;;5.53;2.85;;;14.40;61.10;;;;;;2374193;56;21114;-77
2022/05/13 01:48:10;;;;;;;7.80;3.00;;;14.30;61.30;;;;;;2374675;56;21162;-77
2022/05/13 01:50:39;;;;;;;4.93;2.65;;;14.30;61.30;;;;;;2375290;56;21035;-77
2022/05/13 01:53:08;;;;;;;7.37;3.05;;;14.30;61.30;;;;;;2479585;52;21106;-77
2022/05/13 01:55:35;;;;;;;7.65;2.67;;;14.30;61.20;;;;;;2374757;56;21125;-77
2022/05/13 01:58:04;;;;;;;6.45;3.00;;;14.20;61.20;;;;;;2375367;56;21111;-77
2022/05/13 02:00:31;;;;;;;7.80;2.87;;;14.20;61.30;;;;;;2375492;56;21039;-77
2022/05/13 02:05:55;;;;;;;7.53;2.97;;;14.20;61.30;;;;;;2371154;55;21046;-75
2022/05/13 02:08:22;;;;;;;4.97;2.60;;;14.20;61.30;;;;;;2375011;56;21047;-77
2022/05/13 02:10:49;;;;;;;10.43;3.20;;;14.10;61.40;;;;;;2375304;56;21166;-76
2022/05/13 02:13:18;;;;;;;8.70;3.42;;;14.00;61.50;;;;;;2418064;52;21581;-77
2022/05/13 02:15:45;;;;;;;3.87;2.25;;;14.00;61.50;;;;;;2375248;56;21039;-77
2022/05/13 02:18:13;;;;;;;6.65;3.12;;;14.00;61.70;;;;;;2375353;56;21047;-77
2022/05/13 02:20:42;;;;;;;3.92;2.90;;;14.00;62.10;;;;;;2373888;56;21087;-77
2022/05/13 02:23:09;;;;;;;6.37;2.67;;;13.90;61.90;;;;;;2374569;56;21031;-77
2022/05/13 02:25:37;;;;;;;8.27;3.05;;;13.90;61.80;;;;;;2374709;56;21664;-77
2022/05/13 02:28:06;;;;;;;6.43;2.92;;;13.90;61.80;;;;;;2375118;56;21047;-77
2022/05/13 02:30:34;;;;;;;4.68;2.58;;;13.80;61.90;;;;;;2375065;56;21127;-77
2022/05/13 02:33:01;;;;;;;7.35;2.80;;;13.80;62.10;;;;;;2375123;56;21035;-77
2022/05/13 02:35:29;;;;;;;4.70;2.72;;;13.80;62.30;;;;;;2374862;56;21039;-76
2022/05/13 02:37:56;;;;;;;4.37;2.75;;;13.80;62.30;;;;;;2374602;56;21044;-77
2022/05/13 02:41:11;;;;;;;7.95;3.05;;;13.80;62.30;;;;;;2374548;56;21545;-77
2022/05/13 02:43:39;;;;;;;4.85;2.78;;;13.70;62.30;;;;;;2374320;56;21122;-77
2022/05/13 02:46:07;;;;;;;6.53;2.83;;;13.70;62.00;;;;;;2384494;52;21185;-76
2022/05/13 02:48:34;;;;;;;5.10;2.75;;;13.70;62.20;;;;;;2374100;56;21153;-77
2022/05/13 02:51:02;;;;;;;8.10;3.30;;;13.60;62.50;;;;;;2374103;56;21078;-77
2022/05/13 02:53:29;;;;;;;10.35;2.95;;;13.60;63.10;;;;;;2374400;56;21051;-74
2022/05/13 02:55:57;;;;;;;11.07;2.67;;;13.60;62.40;;;;;;2373710;56;21203;-77
2022/05/13 02:58:24;;;;;;;7.80;2.95;;;13.60;62.70;;;;;;2373304;56;21019;-77
2022/05/13 03:00:51;;;;;;;5.15;2.58;;;13.50;62.80;;;;;;2374199;56;21290;-77
2022/05/13 03:03:19;;;;;;;8.07;2.80;;;13.50;63.00;;;;;;2380179;52;21039;-76
2022/05/13 03:05:46;;;;;;;8.80;3.67;;;13.50;63.40;;;;;;2373474;56;21106;-76
2022/05/13 03:08:13;;;;;;;10.60;2.87;;;13.40;63.40;;;;;;2373749;56;21091;-77
2022/05/13 03:10:40;;;;;;;5.62;3.15;;;13.40;63.50;;;;;;2373970;56;21063;-77
2022/05/13 03:13:09;;;;;;;11.20;3.30;;;13.40;63.60;;;;;;2374286;56;21131;-77
2022/05/13 03:15:37;;;;;;;7.85;3.40;;;13.40;63.80;;;;;;2409899;52;21031;-77
2022/05/13 03:18:05;;;;;;;5.87;2.67;;;13.40;63.70;;;;;;2373852;56;21099;-76
2022/05/13 03:20:32;;;;;;;7.15;2.67;;;13.30;64.60;;;;;;2374033;56;21130;-76
2022/05/13 03:22:59;;;;;;;4.85;2.67;;;13.30;63.80;;;;;;2374075;56;21127;-76
2022/05/13 03:25:27;;;;;;;10.85;3.03;;;13.30;64.00;;;;;;2372919;56;21047;-77
2022/05/13 03:27:55;;;;;;;8.10;3.78;;;13.30;64.10;;;;;;2398267;52;21027;-76
2022/05/13 03:33:00;;;;;;;8.43;3.05;;;13.30;64.30;;;;;;2361666;53;22103;-75
2022/05/13 03:35:27;;;;;;;5.85;3.25;;;13.30;65.00;;;;;;2346091;57;21054;-77
2022/05/13 03:37:54;;;;;;;4.35;2.62;;;13.30;65.30;;;;;;2365734;56;21110;-77
2022/05/13 03:40:22;;;;;;;7.97;3.37;;;13.30;65.70;;;;;;2374901;56;21090;-77
2022/05/13 03:42:49;;;;;;;8.20;3.50;;;13.30;65.90;;;;;;2375271;56;21541;-77
2022/05/13 03:45:19;;;;;;;9.30;3.28;;;13.30;65.90;;;;;;2374861;56;21062;-77
2022/05/13 03:47:49;;;;;;;8.63;3.00;;;13.40;66.20;;;;;;2374297;56;21051;-77
2022/05/13 03:50:16;;;;;;;6.93;3.50;;;13.40;66.20;;;;;;2374578;56;21039;-77
2022/05/13 03:52:43;;;;;;;9.82;3.80;;;13.40;66.20;;;;;;2372637;56;21095;-75
2022/05/13 03:55:11;;;;;;;15.15;3.53;;;13.40;66.20;;;;;;2371713;56;21054;-75
2022/05/13 03:57:38;;;;;;;8.70;3.40;;;13.40;66.30;;;;;;2373236;56;21098;-76
2022/05/13 04:00:09;;;;;;;7.30;3.30;;;13.50;67.40;;;;;;2374089;56;21553;-77
2022/05/13 04:02:37;;;;;;;7.85;3.10;;;13.50;66.60;;;;;;2372910;56;21593;-76
2022/05/13 04:10:38;;;;;;;8.98;3.30;;;13.60;66.60;;;;;;2373739;52;21067;-75
2022/05/13 04:16:06;;;;;;;8.98;3.45;;;13.70;66.70;;;;;;2379903;52;21525;-75
2022/05/13 04:18:36;;;;;;;8.52;3.00;;;13.70;66.50;;;;;;2373284;56;21209;-76
2022/05/13 04:21:05;;;;;;;6.65;3.10;;;13.70;66.30;;;;;;2373494;56;21031;-76
2022/05/13 04:23:34;;;;;;;5.80;3.20;;;13.70;66.50;;;;;;2374691;56;21043;-75
2022/05/13 04:26:01;;;;;;;6.93;2.95;;;13.80;66.50;;;;;;2373758;56;21050;-75
2022/05/13 04:28:29;;;;;;;10.80;3.62;;;13.80;66.50;;;;;;2374673;56;21050;-76
2022/05/13 04:30:58;;;;;;;9.15;2.62;;;13.80;66.40;;;;;;2374351;56;21094;-75
2022/05/13 04:33:26;;;;;;;6.75;3.40;;;13.90;66.60;;;;;;2374429;56;21082;-75
2022/05/13 04:35:53;;;;;;;5.85;3.37;;;13.90;66.60;;;;;;2373936;56;21122;-75
2022/05/13 04:38:20;;;;;;;8.30;3.70;;;13.90;66.50;;;;;;2374398;56;21810;-75
2022/05/13 04:40:47;;;;;;;6.80;3.92;;;14.00;66.70;;;;;;2374348;56;21632;-75
2022/05/13 04:43:15;;;;;;;8.90;3.20;;;14.00;66.60;;;;;;2373705;56;21668;-75
2022/05/13 04:45:42;;;;;;;6.43;2.87;;;14.00;66.20;;;;;;2373362;56;21548;-75
2022/05/13 04:48:17;;;;;;;9.73;3.58;;;14.10;66.40;;;;;;2551137;52;21111;-75
2022/05/13 04:50:48;;;;;;;7.97;3.10;;;14.10;66.30;;;;;;2381665;53;21110;-71
2022/05/13 04:53:18;;;;;;;8.07;3.95;;;14.10;66.50;;;;;;2303894;58;21132;-72
2022/05/13 04:55:46;;;;;;;5.90;3.30;;;14.20;66.50;;;;;;2303095;58;21568;-72
2022/05/13 04:58:13;;;;;;;8.15;3.92;;;14.20;66.20;;;;;;2302990;58;21057;-72
2022/05/13 05:00:40;;;;;;;8.65;3.55;;;14.20;65.30;;;;;;2302311;58;21119;-71
2022/05/13 05:03:07;;;;;;;5.57;2.97;;;14.30;65.60;;;;;;2301239;58;21072;-71
2022/05/13 05:05:35;;;;;;;5.80;2.92;;;14.30;65.00;;;;;;2301451;58;21140;-72
2022/05/13 05:08:02;;;;;;;5.70;3.15;;;14.30;64.70;;;;;;2302478;58;21123;-75
2022/05/13 05:10:30;;;;;;;6.68;3.03;;;14.30;64.70;;;;;;2301372;58;21128;-72
2022/05/13 05:12:57;;;;;;;13.65;3.50;;;14.40;64.50;;;;;;2302659;58;21325;-72
2022/05/13 05:15:26;;;;;;;7.10;3.08;;;14.40;64.70;;;;;;2301648;58;21136;-71
2022/05/13 05:17:53;;;;;;;8.02;3.67;;;14.40;64.40;;;;;;2302357;58;21060;-71
2022/05/13 05:20:21;;;;;;;7.72;3.67;;;14.40;64.80;;;;;;2303353;58;21049;-71
2022/05/13 05:22:49;;;;;;;9.38;3.37;;;14.50;65.10;;;;;;2301779;58;21050;-71
2022/05/13 05:25:18;;;;;;;6.72;3.47;;;14.50;64.50;;;;;;2302562;58;21677;-72
2022/05/13 05:27:46;;;;;;;9.45;4.22;;;14.50;64.20;;;;;;2302714;58;21132;-71
2022/05/13 05:30:14;;;;;;;7.78;4.28;;;14.60;63.70;;;;;;2302984;58;21116;-71
2022/05/13 05:32:42;;;;;;;7.57;3.42;;;14.60;64.00;;;;;;2303124;58;21061;-71
2022/05/13 05:35:13;;;;;;;8.32;3.33;;;14.60;64.00;;;;;;2302954;58;21040;-71
2022/05/13 05:37:40;;;;;;;6.87;3.65;;;14.60;64.20;;;;;;2303089;58;21057;-71
2022/05/13 05:42:43;;;;;;;7.00;3.47;;;14.60;64.30;;;;;;2356541;57;20056;-73
2022/05/13 05:45:13;;;;;;;8.63;3.70;;;14.60;64.70;;;;;;2347805;57;21121;-73
2022/05/13 05:47:40;;;;;;;9.20;3.70;;;14.70;65.10;;;;;;2613756;52;21042;-72
2022/05/13 05:50:12;;;;;;;4.35;3.35;;;14.60;64.90;;;;;;2375432;56;21557;-73
2022/05/13 05:52:40;;;;;;;11.75;3.35;;;14.60;64.80;;;;;;2375367;56;21043;-73
2022/05/13 05:58:01;;;;;;;8.50;4.00;;;14.70;64.90;;;;;;2373863;56;21015;-73
2022/05/13 06:00:30;;;;;;;13.02;3.35;;;14.70;64.70;;;;;;2374903;56;21561;-73
2022/05/13 06:02:58;;;;;;;8.77;3.85;;;14.70;64.90;;;;;;2375194;56;21105;-72
2022/05/13 06:05:26;;;;;;;7.68;3.67;;;14.70;64.70;;;;;;2374582;56;21118;-73
2022/05/13 06:07:56;;;;;;;9.02;4.15;;;14.80;64.80;;;;;;2375209;56;21125;-72
2022/05/13 06:10:23;;;;;;;14.93;4.70;;;14.80;64.60;;;;;;2374867;56;21098;-73
2022/05/13 06:12:50;;;;;;;9.30;3.67;;;14.80;64.60;;;;;;2374533;56;21082;-73
2022/05/13 06:15:18;;;;;;;7.40;3.37;;;14.80;64.80;;;;;;2375054;56;21146;-72
2022/05/13 06:17:47;;;;;;;6.45;3.17;;;14.80;64.80;;;;;;2374689;56;21102;-73
2022/05/13 06:20:16;;;;;;;6.70;3.30;;;14.80;64.90;;;;;;2375096;56;21027;-73
2022/05/13 06:22:44;;;;;;;9.05;3.83;;;14.90;65.00;;;;;;2375027;56;21035;-74
2022/05/13 06:25:13;;;;;;;8.95;2.87;;;14.90;65.00;;;;;;2374994;56;21549;-72
2022/05/13 06:27:40;;;;;;;6.95;3.10;;;14.90;64.80;;;;;;2375071;56;21059;-73
2022/05/13 06:30:11;;;;;;;12.27;3.78;;;15.00;64.70;;;;;;2374201;56;21193;-72
2022/05/13 06:32:38;;;;;;;8.13;3.72;;;15.00;64.80;;;;;;2374546;56;21054;-72
2022/05/13 06:35:08;;;;;;;8.05;2.97;;;15.00;64.60;;;;;;2374817;56;21015;-72
2022/05/13 06:37:36;;;;;;;9.90;3.33;;;15.10;64.70;;;;;;2374693;56;21019;-73
2022/05/13 06:40:04;;;;;;;6.78;3.95;;;15.10;64.40;;;;;;2375273;56;21109;-73
2022/05/13 06:42:32;;;;;;;6.87;2.70;;;15.20;64.10;;;;;;2374620;56;21043;-72
2022/05/13 06:44:59;;;;;;;7.35;3.35;;;15.20;63.90;;;;;;2375149;56;21541;-73
2022/05/13 06:47:27;;;;;;;8.85;3.55;;;15.20;63.40;;;;;;2374186;56;21417;-72
2022/05/13 06:49:54;;;;;;;9.95;3.22;;;15.20;63.30;;;;;;2375145;56;21545;-72
2022/05/13 06:52:21;;;;;;;12.63;3.67;;;15.20;63.20;;;;;;2374678;56;21301;-73
2022/05/13 06:54:48;;;;;;;8.23;2.67;;;15.30;63.20;;;;;;2373964;56;21617;-72
2022/05/13 06:57:16;;;;;;;5.07;2.70;;;15.30;63.10;;;;;;2373671;56;21043;-73
2022/05/13 06:59:43;;;;;;;8.82;3.28;;;15.30;62.10;;;;;;2374121;56;21645;-73
2022/05/13 07:02:11;;;;;;;11.52;3.47;;;15.30;62.00;;;;;;2372555;56;21122;-72
2022/05/13 07:04:38;;;;;;;12.43;3.10;;;15.30;62.00;;;;;;2372960;56;21525;-73
2022/05/13 07:07:06;;;;;;;7.32;3.30;;;15.30;62.00;;;;;;2373260;56;21087;-73
2022/05/13 07:09:34;;;;;;;7.90;3.15;;;15.30;62.50;;;;;;2373688;56;21039;-73
2022/05/13 07:12:01;;;;;;;8.55;3.53;;;15.30;62.30;;;;;;2373734;56;21071;-72
2022/05/13 07:14:28;;;;;;;6.68;2.95;;;15.30;62.20;;;;;;2373585;56;21030;-72
2022/05/13 07:16:56;;;;;;;6.90;2.67;;;15.30;62.50;;;;;;2373284;56;21039;-73
2022/05/13 07:19:23;;;;;;;5.70;3.15;;;15.30;62.30;;;;;;2373227;56;21039;-73
2022/05/13 07:21:51;;;;;;;8.73;2.80;;;15.40;62.70;;;;;;2625866;52;21570;-73
2022/05/13 07:24:18;;;;;;;5.40;2.70;;;15.40;62.40;;;;;;2373254;56;21035;-73
2022/05/13 07:26:46;;;;;;;11.35;3.10;;;15.40;62.40;;;;;;2372940;56;21128;-73
2022/05/13 07:29:13;;;;;;;5.60;2.83;;;15.40;61.90;;;;;;2372362;56;21102;-74
2022/05/13 07:31:40;;;;;;;11.27;3.25;;;15.50;61.90;;;;;;2372954;56;21140;-72
2022/05/13 07:34:07;;;;;;;5.68;2.78;;;15.50;61.40;;;;;;2372977;56;21113;-73
2022/05/13 07:36:35;;;;;;;8.68;3.42;;;15.50;61.40;;;;;;2372509;56;21043;-73
2022/05/13 07:41:50;;;;;;;8.02;3.12;;;15.50;61.00;;;;;;2372949;56;21509;-72
2022/05/13 07:44:17;;;;;;;6.45;2.95;;;15.50;60.70;;;;;;2373141;56;21571;-73
2022/05/13 07:46:45;;;;;;;8.27;2.87;;;15.50;61.20;;;;;;2371763;56;21533;-72
2022/05/13 07:49:12;;;;;;;13.57;3.60;;;15.50;60.80;;;;;;2373570;56;21138;-73
2022/05/13 07:51:40;;;;;;;10.85;3.42;;;15.60;61.20;;;;;;2374202;56;21027;-73
2022/05/13 07:54:07;;;;;;;8.25;3.20;;;15.60;61.00;;;;;;2374100;56;21114;-73
2022/05/13 07:56:34;;;;;;;9.02;3.10;;;15.60;60.60;;;;;;2373267;56;21110;-73
2022/05/13 07:59:02;;;;;;;9.10;4.00;;;15.70;60.70;;;;;;2373519;56;21119;-73
2022/05/13 08:01:30;;;;;;;8.75;3.50;;;15.70;61.10;;;;;;2373535;56;21034;-73
2022/05/13 08:03:57;;;;;;;10.02;3.85;;;15.80;60.60;;;;;;2373475;56;21042;-73
2022/05/13 08:06:25;;;;;;;8.98;4.00;;;15.80;60.90;;;;;;2373251;56;21054;-73
2022/05/13 08:08:56;;;;;;;8.30;3.67;;;15.80;59.80;;;;;;2373738;56;21046;-73
2022/05/13 08:11:24;;;;;;;8.90;3.33;;;15.90;60.50;;;;;;2373085;56;21035;-73
2022/05/13 08:13:52;;;;;;;10.93;3.47;;;15.90;60.90;;;;;;2372786;56;21632;-73
2022/05/13 08:16:22;;;;;;;13.38;3.85;;;16.00;60.40;;;;;;2372999;56;21031;-73
2022/05/13 08:18:49;;;;;;;18.40;4.05;;;16.00;60.20;;;;;;2373661;56;21027;-74
2022/05/13 08:21:16;;;;;;;14.35;4.53;;;16.10;60.00;;;;;;2372989;56;21127;-73
2022/05/13 08:23:44;;;;;;;8.00;4.37;;;16.10;59.90;;;;;;2373008;56;21031;-73
2022/05/13 08:26:11;;;;;;;10.02;3.83;;;16.20;59.80;;;;;;2371624;56;21506;-73
2022/05/13 08:28:39;;;;;;;14.27;4.32;;;16.20;59.60;;;;;;2627436;52;21082;-73
2022/05/13 08:31:07;;;;;;;7.45;3.10;;;16.20;59.80;;;;;;2374419;56;21042;-72
2022/05/13 08:33:35;;;;;;;13.82;4.68;;;16.20;59.50;;;;;;2373193;56;21035;-73
2022/05/13 08:36:05;;;;;;;12.82;3.37;;;16.20;59.70;;;;;;2372938;56;21556;-73
2022/05/13 08:38:36;;;;;;;16.25;4.65;;;16.20;59.40;;;;;;2373312;56;21043;-73
2022/05/13 08:41:38;;;;;;;10.95;4.62;;;16.30;59.60;;;;;;2374257;56;21031;-73
2022/05/13 08:44:09;;;;;;;14.10;5.12;;;16.30;59.90;;;;;;2374439;56;21027;-73
2022/05/13 08:46:40;;;;;;;11.95;4.12;;;16.40;59.60;;;;;;2373611;56;21126;-73
2022/05/13 08:49:17;;;;;;;11.40;4.03;;;16.40;59.40;;;;;;2374250;56;21059;-73
2022/05/13 08:51:57;;;;;;;11.63;4.45;;;16.40;59.20;;;;;;2374080;56;21655;-73
2022/05/13 08:54:31;;;;;;;8.65;4.12;;;16.50;59.60;;;;;;2373038;56;21348;-73
2022/05/13 08:57:03;;;;;;;16.70;4.70;;;16.50;59.30;;;;;;2373405;56;21039;-73
2022/05/13 08:59:42;;;;;;;8.20;4.20;;;16.50;59.60;;;;;;2374407;56;21081;-73
2022/05/13 09:02:16;;;;;;;13.57;4.18;;;16.50;60.00;;;;;;2374448;56;21138;-73
2022/05/13 09:04:48;;;;;;;12.05;4.62;;;16.60;59.80;;;;;;2374115;56;21043;-73
2022/05/13 09:07:18;;;;;;;9.55;4.10;;;16.60;59.50;;;;;;2373899;56;21047;-73
2022/05/13 09:09:47;;;;;;;11.48;4.07;;;16.70;59.60;;;;;;2374168;56;21039;-73
2022/05/13 09:12:18;;;;;;;13.57;4.72;;;16.70;59.50;;;;;;2372940;56;21123;-73
2022/05/13 09:14:52;;;;;;;14.75;4.62;;;16.80;59.50;;;;;;2374249;56;21537;-72
2022/05/13 09:17:28;;;;;;;;;;;16.90;58.90;;;;;;2377146;56;21569;-73
2022/05/13 09:20:00;;;;;;;8.55;3.87;;;16.90;58.70;;;;;;2374442;56;20074;-73
2022/05/13 09:22:35;;;;;;;12.50;4.28;;;17.00;58.50;;;;;;2374074;56;21122;-73
2022/05/13 09:25:03;;;;;;;13.10;4.18;;;17.10;58.70;;;;;;2374171;56;21111;-74
2022/05/13 09:27:41;;;;;;;12.52;4.25;;;17.20;58.30;;;;;;2371719;56;21066;-73
2022/05/13 09:30:10;;;;;;;19.23;5.95;;;17.20;58.50;;;;;;2374265;56;21108;-73
2022/05/13 09:32:37;;;;;;;13.32;4.50;;;17.30;58.60;;;;;;2374076;56;21186;-73
2022/05/13 09:35:15;;;;;;;17.10;5.07;;;17.30;58.30;;;;;;2373858;56;21589;-76
2022/05/13 09:37:45;;;;;;;11.82;3.92;;;17.40;58.60;;;;;;2371853;56;21038;-76
2022/05/13 09:40:23;;;;;;;12.85;4.93;;;17.50;58.50;;;;;;2372012;56;21111;-76
2022/05/13 09:42:52;;;;;;;9.45;3.75;;;17.50;57.40;;;;;;2372383;56;21050;-76
2022/05/13 09:45:25;;;;;;;13.27;5.15;;;17.60;57.60;;;;;;2372847;56;21106;-76
2022/05/13 09:48:11;;;;;;;11.20;4.70;;;17.70;57.90;;;;;;2373026;56;21150;-76
2022/05/13 09:50:42;;;;;;;11.93;4.47;;;17.70;57.40;;;;;;2373508;56;21855;-76
2022/05/13 09:53:33;;;;;;;8.55;3.65;;;17.70;57.10;;;;;;2373341;56;21138;-76
2022/05/13 09:56:03;;;;;;;11.80;4.18;;;17.80;56.60;;;;;;2372531;56;21321;-76
2022/05/13 09:58:33;;;;;;;11.05;3.92;;;17.70;56.50;;;;;;2373370;56;21027;-76
2022/05/13 10:01:04;;;;;;;12.15;3.90;;;17.80;56.10;;;;;;2371774;56;21194;-76
2022/05/13 10:03:36;;;;;;;21.25;5.20;;;17.80;55.90;;;;;;2373365;56;21099;-76
2022/05/13 10:06:20;;;;;;;10.23;4.35;;;17.80;55.80;;;;;;2372761;56;21058;-76
2022/05/13 10:08:53;;;;;;;12.57;4.43;;;17.80;56.30;;;;;;2373207;56;21182;-76
2022/05/13 10:14:23;;;;;;;12.02;4.40;;;17.90;56.60;;;;;;2372884;56;20078;-76
2022/05/13 10:16:53;;;;;;;15.18;4.87;;;18.00;56.10;;;;;;2372362;56;21059;-76
2022/05/13 10:19:27;;;;;;;11.27;4.12;;;18.00;55.70;;;;;;2372505;56;21047;-76
2022/05/13 10:22:03;;;;;;;8.57;3.67;;;18.00;55.70;;;;;;2373183;56;21110;-76
2022/05/13 10:24:36;;;;;;;9.23;4.62;;;18.10;56.40;;;;;;2373471;56;21027;-76
2022/05/13 10:27:05;;;;;;;;;;;18.10;55.40;;;;;;2375885;56;21134;-76
2022/05/13 10:29:37;;;;;;;11.25;3.85;;;18.00;54.90;;;;;;2373127;56;20073;-76
2022/05/13 10:32:12;;;;;;;14.63;4.28;;;18.10;56.00;;;;;;2626925;52;21023;-76
2022/05/13 10:34:43;;;;;;;9.02;3.50;;;18.10;56.50;;;;;;2373421;56;21601;-76
2022/05/13 10:37:15;;;;;;;12.30;3.95;;;18.20;56.50;;;;;;2373303;56;21039;-76
2022/05/13 10:39:45;;;;;;;11.30;4.40;;;18.20;55.60;;;;;;2374169;56;21039;-76
2022/05/13 10:42:19;;;;;;;15.85;3.83;;;18.20;55.80;;;;;;2373655;56;21094;-76
2022/05/13 10:44:53;;;;;;;10.98;3.80;;;18.30;55.80;;;;;;2373964;56;21038;-76
2022/05/13 10:50:01;;;;;;;9.15;3.55;;;18.40;54.80;;;;;;2378957;56;22030;-75
2022/05/13 10:52:48;;;;;;;13.15;3.85;;;18.30;53.80;;;;;;2378225;52;70144;-74
2022/05/13 10:55:23;;;;;;;10.75;4.00;;;18.20;55.10;;;;;;2353136;57;21112;-75
2022/05/13 10:58:09;;;;;;;11.88;3.80;;;18.10;56.30;;;;;;2350536;57;21065;-75
2022/05/13 11:00:43;;;;;;;10.77;4.85;;;18.00;57.60;;;;;;2352482;57;21056;-75
2022/05/13 11:03:34;;;;;;;18.60;5.47;;;17.90;59.10;;;;;;2359605;53;21539;-77
2022/05/13 11:06:11;;;;;;;9.15;4.97;;;17.80;60.60;;;;;;2354232;55;21037;-76
2022/05/13 11:08:48;;;;;;;13.73;4.65;;;17.70;62.10;;;;;;2353438;57;21057;-76
2022/05/13 11:11:37;;;;;;;11.48;4.80;;;17.70;62.80;;;;;;2359493;53;21128;-76
2022/05/13 11:14:15;;;;;;;9.05;4.93;;;17.80;64.00;;;;;;2371096;53;21072;-76
2022/05/13 11:16:52;;;;;;;10.43;4.65;;;17.80;64.70;;;;;;2369250;53;21108;-77
2022/05/13 11:19:27;;;;;;;12.90;4.35;;;17.90;63.80;;;;;;2352980;57;21104;-77
2022/05/13 11:22:01;;;;;;;7.82;3.83;;;17.90;63.00;;;;;;2388226;53;21601;-76
2022/05/13 11:27:53;;;;;;;11.88;4.60;;;18.00;63.50;;;;;;2353841;53;21297;-76
2022/05/13 11:30:25;;;;;;;9.20;4.05;;;17.90;62.90;;;;;;2354460;57;21104;-76
2022/05/13 11:33:01;;;;;;;15.27;4.10;;;17.90;63.70;;;;;;2354667;57;21085;-78
2022/05/13 11:35:39;;;;;;;11.82;4.37;;;17.80;63.80;;;;;;2354629;57;21049;-77
2022/05/13 11:38:15;;;;;;;10.88;3.50;;;17.80;63.30;;;;;;2359741;53;21634;-77
2022/05/13 11:40:50;;;;;;;6.12;3.20;;;17.70;63.30;;;;;;2370300;53;21048;-75
2022/05/13 11:43:29;;;;;;;5.93;3.40;;;17.70;62.90;;;;;;2354096;57;21614;-76
2022/05/13 11:46:25;;;;;;;7.32;3.47;;;17.60;62.90;;;;;;2353756;57;21108;-76
2022/05/13 11:48:55;;;;;;;5.65;3.40;;;17.60;62.90;;;;;;2354247;54;21072;-75
2022/05/13 11:51:27;;;;;;;8.48;2.90;;;17.50;63.20;;;;;;2353920;57;21096;-77
2022/05/13 11:54:16;;;;;;;7.72;3.22;;;17.60;64.00;;;;;;2387949;53;21029;-76
2022/05/13 11:56:46;;;;;;;7.87;3.55;;;17.60;64.60;;;;;;2360526;53;21037;-75
2022/05/13 11:59:45;;;;;;;7.28;3.67;;;17.60;64.50;;;;;;2353730;55;21049;-77
2022/05/13 12:02:27;;;;;;;10.23;2.90;;;17.70;64.00;;;;;;2370689;53;21128;-76
2022/05/13 12:05:24;;;;;;;13.30;2.95;;;17.70;64.50;;;;;;2357956;53;21112;-76
2022/05/13 12:07:55;;;;;;;7.68;2.85;;;17.80;64.40;;;;;;2352446;57;21049;-76
2022/05/13 12:10:36;;;;;;;6.30;2.67;;;17.90;62.60;;;;;;2601004;53;22197;-76
2022/05/13 12:13:13;;;;;;;7.35;3.37;;;17.80;60.80;;;;;;2484471;53;21104;-75
2022/05/13 12:15:51;;;;;;;9.40;3.00;;;17.70;59.70;;;;;;2352338;57;21044;-75
2022/05/13 12:18:29;;;;;;;6.87;2.83;;;17.70;59.60;;;;;;2434687;52;21045;-76
2022/05/13 12:21:09;;;;;;;9.35;3.67;;;17.60;61.00;;;;;;2453003;53;21037;-76
2022/05/13 12:23:42;;;;;;;6.10;2.87;;;17.60;62.80;;;;;;2352635;57;21100;-75
2022/05/13 12:26:10;;;;;;;;;;;17.80;62.30;;;;;;2356190;57;21048;-78
2022/05/13 12:29:02;;;;;;;10.02;3.15;;;17.80;62.00;;;;;;2353136;57;20062;-77
2022/05/13 12:37:35;;;;;;;5.53;2.85;;;18.20;60.40;;;;;;2300632;55;21542;-75
2022/05/13 12:40:28;;;;;;;7.62;3.85;;;18.20;61.40;;;;;;2318020;58;21048;-75
2022/05/13 12:43:00;;;;;;;6.30;3.22;;;18.10;61.90;;;;;;2318246;55;21075;-77
2022/05/13 12:45:45;;;;;;;10.05;4.72;;;18.00;62.20;;;;;;2317860;58;21060;-76
2022/05/13 12:48:17;;;;;;;10.93;4.10;;;17.90;61.90;;;;;;2317079;58;21037;-75
2022/05/13 12:50:48;;;;;;;7.03;3.55;;;17.90;62.10;;;;;;2316683;58;21654;-76
2022/05/13 12:53:43;;;;;;;10.25;4.18;;;17.90;62.70;;;;;;2316953;58;21606;-76
2022/05/13 12:56:17;;;;;;;7.95;3.80;;;17.90;63.50;;;;;;2317007;58;21115;-76
2022/05/13 12:58:48;;;;;;;8.82;3.37;;;17.90;63.90;;;;;;2315735;58;21073;-79
2022/05/13 13:01:17;;;;;;;8.93;3.47;;;17.90;64.00;;;;;;2318028;58;21151;-79
2022/05/13 13:03:47;;;;;;;6.65;3.40;;;17.90;64.50;;;;;;2337154;54;21121;-78
2022/05/13 13:06:20;;;;;;;8.23;3.05;;;18.00;64.60;;;;;;2321817;54;21123;-79
2022/05/13 13:08:49;;;;;;;8.77;3.10;;;18.20;64.30;;;;;;2318546;58;21124;-79
2022/05/13 13:11:33;;;;;;;5.68;2.85;;;18.30;63.60;;;;;;2317289;58;21075;-79
2022/05/13 13:14:11;;;;;;;8.18;3.60;;;18.30;62.50;;;;;;2350429;54;21124;-76
2022/05/13 13:16:42;;;;;;;9.52;2.97;;;18.30;61.80;;;;;;2316786;58;21072;-77
2022/05/13 13:19:12;;;;;;;6.55;2.90;;;18.20;62.30;;;;;;2317789;58;21103;-79
2022/05/13 13:21:41;;;;;;;6.47;2.60;;;18.20;61.70;;;;;;2366790;54;21105;-78
2022/05/13 13:24:17;;;;;;;7.93;2.80;;;18.10;61.20;;;;;;2371762;54;21068;-78
2022/05/13 13:26:49;;;;;;;12.02;2.85;;;18.10;61.20;;;;;;2328857;54;21059;-76
2022/05/13 13:29:22;;;;;;;8.80;2.62;;;18.00;60.00;;;;;;2317805;58;21064;-78
2022/05/13 13:31:51;;;;;;;4.97;2.35;;;17.90;60.80;;;;;;2318693;54;21053;-76
2022/05/13 13:34:34;;;;;;;6.55;2.50;;;17.90;59.70;;;;;;2316384;58;21151;-78
2022/05/13 13:37:03;;;;;;;11.02;3.58;;;17.80;59.90;;;;;;2317016;55;21061;-77
2022/05/13 13:39:32;;;;;;;6.53;2.67;;;17.70;60.50;;;;;;2318611;58;21064;-78
2022/05/13 13:42:07;;;;;;;6.25;2.60;;;17.70;61.30;;;;;;2340925;54;21654;-78
2022/05/13 13:44:34;;;;;;;4.65;3.00;;;17.70;61.80;;;;;;2319136;58;21160;-78